Time;durP1;ratioP1;P1;durP2;ratioP2;P2;SDS_P1;SDS_P2;PMS_P1;PMS_P2;Temp;Humidity;BMP_temperature;BMP_pressure;BME280_temperature;BME280_humidity;BME280_pressure;Samples;Min_cycle;Max_cycle;Signal;HPM_P1;HPM_P2
2022/04/06 00:01:09;;;;;;;5.40;4.20;;;9.30;28.20;;;;;;7362530;19;20089;-63
2022/04/06 00:03:40;;;;;;;7.70;4.80;;;9.30;28.40;;;;;;7377720;19;20031;-62
2022/04/06 00:06:10;;;;;;;6.07;3.92;;;9.30;29.00;;;;;;7362814;19;20043;-61
2022/04/06 00:08:43;;;;;;;4.93;4.30;;;9.40;29.20;;;;;;7363431;19;20486;-61
2022/04/06 00:11:12;;;;;;;4.47;3.88;;;9.40;28.50;;;;;;7362916;19;20011;-62
2022/04/06 00:13:42;;;;;;;6.25;4.25;;;9.40;28.30;;;;;;7356661;19;20009;-62
2022/04/06 00:16:14;;;;;;;4.50;3.80;;;9.40;28.60;;;;;;7362577;19;20022;-62
2022/04/06 00:18:44;;;;;;;5.43;4.57;;;9.40;28.30;;;;;;7385588;19;20007;-62
2022/04/06 00:21:15;;;;;;;6.35;3.83;;;9.40;28.60;;;;;;7361860;19;20014;-62
2022/04/06 00:23:47;;;;;;;5.60;4.20;;;9.40;28.50;;;;;;7353738;19;20014;-62
2022/04/06 00:26:17;;;;;;;5.13;4.20;;;9.40;28.90;;;;;;7362143;19;20507;-62
2022/04/06 00:28:47;;;;;;;5.32;4.07;;;9.40;29.20;;;;;;7363695;19;20006;-62
2022/04/06 00:31:17;;;;;;;5.20;4.07;;;9.40;29.20;;;;;;7363782;19;20025;-63
2022/04/06 00:33:47;;;;;;;5.90;4.10;;;9.40;29.20;;;;;;7376983;19;20077;-63
2022/04/06 00:36:17;;;;;;;5.10;4.10;;;9.40;29.40;;;;;;7361461;19;20050;-62
2022/04/06 00:38:49;;;;;;;5.55;3.80;;;9.40;29.20;;;;;;7362809;19;20011;-63
2022/04/06 00:41:20;;;;;;;4.28;3.70;;;9.50;29.30;;;;;;7363004;19;20828;-63
2022/04/06 00:44:12;;;;;;;4.93;3.95;;;9.50;29.30;;;;;;7355588;19;20023;-62
2022/04/06 00:46:42;;;;;;;5.05;4.00;;;9.40;30.00;;;;;;7363114;19;20022;-63
2022/04/06 00:49:14;;;;;;;5.57;3.70;;;9.40;29.20;;;;;;7361966;19;20030;-63
2022/04/06 00:51:47;;;;;;;5.10;3.95;;;9.40;29.30;;;;;;7383894;19;20018;-62
2022/04/06 00:54:21;;;;;;;4.97;3.72;;;9.40;30.10;;;;;;7356452;19;20010;-63
2022/04/06 00:56:52;;;;;;;6.15;4.20;;;9.30;30.10;;;;;;7361224;19;20506;-63
2022/04/06 00:59:22;;;;;;;4.65;3.85;;;9.30;31.20;;;;;;7363270;19;20017;-63
2022/04/06 01:01:53;;;;;;;5.85;4.20;;;9.30;31.80;;;;;;7358281;19;20014;-63
2022/04/06 01:04:23;;;;;;;5.57;4.40;;;9.30;31.80;;;;;;7361642;19;20018;-63
2022/04/06 01:06:54;;;;;;;5.57;4.45;;;9.20;31.90;;;;;;7391162;19;20022;-63
2022/04/06 01:09:28;;;;;;;6.95;5.30;;;9.30;31.80;;;;;;7369806;19;20010;-63
2022/04/06 01:11:58;;;;;;;7.18;4.95;;;9.30;31.50;;;;;;7366885;19;20010;-63
2022/04/06 01:14:28;;;;;;;5.32;4.78;;;9.30;31.40;;;;;;7363131;19;20022;-63
2022/04/06 01:17:01;;;;;;;7.93;5.05;;;9.30;31.30;;;;;;7368669;19;20007;-62
2022/04/06 01:19:35;;;;;;;6.95;4.93;;;9.20;32.00;;;;;;7369474;19;20102;-63
2022/04/06 01:22:11;;;;;;;5.57;4.85;;;9.20;32.80;;;;;;7364360;19;20447;-63
2022/04/06 01:24:43;;;;;;;5.78;4.95;;;9.20;33.00;;;;;;7383893;19;20022;-63
2022/04/06 01:27:13;;;;;;;6.05;5.07;;;9.10;33.00;;;;;;7368736;19;20117;-62
2022/04/06 01:29:44;;;;;;;6.32;4.88;;;9.10;33.80;;;;;;7369372;19;20476;-62
2022/04/06 01:32:18;;;;;;;6.60;4.72;;;9.10;34.30;;;;;;7367586;19;20082;-62
2022/04/06 01:34:53;;;;;;;6.03;5.43;;;9.10;34.10;;;;;;7364770;19;20015;-62
2022/04/06 01:37:25;;;;;;;5.65;5.03;;;9.10;34.90;;;;;;7369278;19;20014;-64
2022/04/06 01:39:55;;;;;;;6.93;5.50;;;9.10;34.80;;;;;;7390449;19;20478;-62
2022/04/06 01:42:25;;;;;;;8.02;5.85;;;9.10;35.70;;;;;;7363800;19;20031;-61
2022/04/06 01:44:58;;;;;;;6.45;5.35;;;9.00;35.40;;;;;;7362226;19;20015;-62
2022/04/06 01:47:31;;;;;;;6.85;5.47;;;9.10;34.60;;;;;;7367167;19;20104;-62
2022/04/06 01:52:46;;;;;;;7.28;5.28;;;9.00;34.60;;;;;;7366546;19;20007;-62
2022/04/06 01:55:19;;;;;;;7.57;5.70;;;9.10;34.80;;;;;;7361182;19;20466;-62
2022/04/06 01:57:49;;;;;;;6.97;5.88;;;9.10;34.70;;;;;;7390311;19;20081;-61
2022/04/06 02:00:20;;;;;;;6.50;5.68;;;9.10;35.00;;;;;;7368009;19;20383;-62
2022/04/06 02:02:52;;;;;;;9.70;5.40;;;9.10;35.70;;;;;;7364617;19;20007;-62
2022/04/06 02:05:23;;;;;;;7.47;6.07;;;9.10;35.10;;;;;;7362188;19;20504;-63
2022/04/06 02:07:56;;;;;;;7.50;4.78;;;9.10;35.00;;;;;;7367860;19;20010;-62
2022/04/06 02:10:26;;;;;;;6.32;5.38;;;9.10;34.60;;;;;;7367819;19;20022;-62
2022/04/06 02:12:58;;;;;;;5.93;4.78;;;9.10;34.50;;;;;;7387266;19;20015;-62
2022/04/06 02:15:31;;;;;;;5.65;5.05;;;9.10;34.20;;;;;;7360324;19;20015;-64
2022/04/06 02:18:02;;;;;;;5.85;4.93;;;9.10;34.70;;;;;;7365881;19;20011;-62
2022/04/06 02:20:33;;;;;;;7.72;5.35;;;9.10;35.10;;;;;;7367316;19;20013;-63
2022/04/06 02:23:05;;;;;;;6.60;5.20;;;9.10;35.10;;;;;;7363548;19;20034;-63
2022/04/06 02:25:35;;;;;;;6.93;5.40;;;9.10;35.30;;;;;;7364241;19;20007;-63
2022/04/06 02:28:06;;;;;;;6.78;5.63;;;9.10;35.50;;;;;;7367733;19;20011;-62
2022/04/06 02:30:35;;;;;;;9.25;5.60;;;9.10;35.70;;;;;;7388104;19;20015;-62
2022/04/06 02:33:05;;;;;;;6.00;5.38;;;9.10;35.20;;;;;;7362937;19;20020;-63
2022/04/06 02:35:35;;;;;;;8.35;5.93;;;9.10;34.80;;;;;;7363920;19;20360;-63
2022/04/06 02:38:08;;;;;;;7.72;5.90;;;9.20;34.40;;;;;;7367703;19;20010;-61
2022/04/06 02:40:38;;;;;;;7.13;5.95;;;9.20;33.70;;;;;;7367572;19;20352;-61
2022/04/06 02:43:08;;;;;;;9.57;6.57;;;9.20;33.00;;;;;;7359790;19;20085;-61
2022/04/06 02:45:38;;;;;;;8.40;5.68;;;9.30;32.00;;;;;;7385919;19;20010;-62
2022/04/06 02:48:08;;;;;;;8.05;6.30;;;9.30;32.00;;;;;;7365702;19;20387;-61
2022/04/06 02:50:38;;;;;;;7.07;6.20;;;9.30;32.30;;;;;;7364886;19;20366;-62
2022/04/06 02:53:10;;;;;;;7.78;6.28;;;9.30;31.40;;;;;;7362762;19;20006;-62
2022/04/06 02:55:40;;;;;;;9.18;6.75;;;9.40;31.20;;;;;;7364065;19;20078;-62
2022/04/06 02:58:10;;;;;;;10.40;6.20;;;9.30;31.40;;;;;;7365548;19;20491;-63
2022/04/06 03:00:40;;;;;;;8.07;6.47;;;9.30;30.60;;;;;;7388240;19;20033;-61
2022/04/06 03:03:10;;;;;;;8.40;6.32;;;9.30;30.80;;;;;;7359482;19;20007;-61
2022/04/06 03:05:40;;;;;;;13.02;7.07;;;9.30;31.30;;;;;;7363684;19;20010;-62
2022/04/06 03:08:13;;;;;;;9.18;6.32;;;9.30;31.30;;;;;;7365906;19;20021;-61
2022/04/06 03:10:43;;;;;;;8.30;6.82;;;9.40;30.40;;;;;;7366956;19;20025;-61
2022/04/06 03:13:13;;;;;;;7.40;6.40;;;9.40;29.80;;;;;;7356667;19;20101;-62
2022/04/06 03:15:43;;;;;;;8.57;6.50;;;9.30;30.60;;;;;;7384286;19;20018;-61
2022/04/06 03:18:13;;;;;;;8.77;6.50;;;9.40;30.20;;;;;;7365073;19;20081;-62
2022/04/06 03:20:44;;;;;;;7.93;6.35;;;9.40;30.50;;;;;;7365220;19;20105;-62
2022/04/06 03:23:16;;;;;;;7.57;6.07;;;9.40;30.10;;;;;;7359418;19;20038;-61
2022/04/06 03:25:47;;;;;;;6.85;5.93;;;9.30;30.30;;;;;;7360260;19;20089;-62
2022/04/06 03:28:19;;;;;;;8.98;6.50;;;9.30;30.10;;;;;;7365550;19;20018;-62
2022/04/06 03:30:49;;;;;;;8.82;6.15;;;9.30;30.70;;;;;;7386247;19;20014;-62
2022/04/06 03:33:19;;;;;;;8.43;5.65;;;9.30;30.70;;;;;;7357464;19;20090;-61
2022/04/06 03:35:49;;;;;;;8.52;6.18;;;9.30;31.00;;;;;;7363391;19;20467;-61
2022/04/06 03:38:22;;;;;;;8.70;6.05;;;9.30;30.90;;;;;;7365521;19;20029;-62
2022/04/06 03:40:54;;;;;;;7.90;6.10;;;9.30;31.00;;;;;;7364195;19;20082;-62
2022/04/06 03:43:24;;;;;;;9.07;6.00;;;9.30;31.00;;;;;;7356875;19;20019;-61
2022/04/06 03:45:55;;;;;;;7.20;6.18;;;9.30;31.00;;;;;;7386385;19;20034;-63
2022/04/06 03:48:24;;;;;;;8.20;5.90;;;9.30;30.90;;;;;;7364919;19;20002;-62
2022/04/06 03:50:55;;;;;;;8.57;5.97;;;9.30;30.10;;;;;;7364123;19;20428;-61
2022/04/06 03:53:27;;;;;;;7.32;5.82;;;9.30;30.00;;;;;;7357361;19;20480;-61
2022/04/06 03:55:57;;;;;;;7.72;5.88;;;9.30;30.20;;;;;;7363514;19;20006;-62
2022/04/06 03:58:29;;;;;;;6.85;5.70;;;9.30;30.30;;;;;;7364196;19;20021;-62
2022/04/06 04:00:58;;;;;;;7.18;5.78;;;9.30;30.00;;;;;;7385600;19;20026;-62
2022/04/06 04:03:28;;;;;;;6.97;5.75;;;9.20;31.50;;;;;;7355350;19;20014;-62
2022/04/06 04:05:58;;;;;;;7.68;6.18;;;9.20;32.10;;;;;;7363352;19;20014;-62
2022/04/06 04:08:31;;;;;;;10.40;6.57;;;9.20;32.50;;;;;;7361686;19;20557;-62
2022/04/06 04:11:01;;;;;;;9.23;6.40;;;9.20;32.70;;;;;;7363457;19;20035;-62
2022/04/06 04:13:31;;;;;;;8.18;6.05;;;9.20;32.00;;;;;;7356380;19;20016;-63
2022/04/06 04:16:01;;;;;;;11.18;6.53;;;9.20;32.00;;;;;;7384614;19;20014;-62
2022/04/06 04:18:35;;;;;;;10.18;5.88;;;9.20;31.50;;;;;;7364330;19;20034;-62
2022/04/06 04:23:50;;;;;;;8.13;6.03;;;9.20;30.90;;;;;;7355098;19;20014;-61
2022/04/06 04:26:20;;;;;;;8.32;5.32;;;9.20;31.20;;;;;;7362602;19;20022;-61
2022/04/06 04:28:49;;;;;;;11.18;6.70;;;9.20;31.30;;;;;;7363537;19;20394;-61
2022/04/06 04:31:19;;;;;;;9.48;6.05;;;9.20;31.00;;;;;;7363375;19;20498;-61
2022/04/06 04:33:50;;;;;;;8.75;6.45;;;9.20;30.90;;;;;;7376729;19;20575;-62
2022/04/06 04:36:20;;;;;;;8.02;6.00;;;9.20;30.70;;;;;;7362540;19;20015;-61
2022/04/06 04:38:53;;;;;;;7.88;5.68;;;9.20;30.80;;;;;;7367374;19;20032;-61
2022/04/06 04:41:23;;;;;;;7.75;5.97;;;9.20;30.40;;;;;;7370647;19;20082;-62
2022/04/06 04:43:53;;;;;;;7.93;6.05;;;9.30;30.70;;;;;;7361925;19;20016;-61
2022/04/06 04:46:23;;;;;;;7.70;5.70;;;9.20;31.00;;;;;;7369291;19;20019;-62
2022/04/06 04:48:53;;;;;;;7.15;5.97;;;9.20;30.80;;;;;;7392821;19;20014;-62
2022/04/06 04:51:23;;;;;;;7.70;5.70;;;9.30;30.80;;;;;;7370823;19;20074;-61
2022/04/06 04:53:57;;;;;;;8.05;6.45;;;9.30;31.00;;;;;;7361551;19;20014;-62
2022/04/06 04:56:28;;;;;;;7.28;5.72;;;9.20;30.90;;;;;;7368477;19;20066;-61
2022/04/06 04:58:58;;;;;;;7.20;6.00;;;9.30;31.30;;;;;;7369850;19;20010;-62
2022/04/06 05:01:29;;;;;;;10.63;6.20;;;9.30;31.50;;;;;;7369729;19;20082;-61
2022/04/06 05:03:59;;;;;;;10.25;5.72;;;9.30;31.50;;;;;;7380735;19;20018;-62
2022/04/06 05:06:29;;;;;;;7.53;5.55;;;9.30;31.60;;;;;;7368646;19;20052;-62
2022/04/06 05:09:01;;;;;;;7.80;6.32;;;9.30;31.60;;;;;;7368928;19;20490;-62
2022/04/06 05:11:31;;;;;;;7.95;5.68;;;9.20;32.30;;;;;;7369143;19;20015;-62
2022/04/06 05:14:01;;;;;;;6.60;5.90;;;9.30;32.40;;;;;;7358954;19;20025;-62
2022/04/06 05:16:31;;;;;;;11.73;5.85;;;9.30;32.50;;;;;;7366228;19;20016;-62
2022/04/06 05:19:02;;;;;;;7.90;5.63;;;9.30;32.00;;;;;;7383396;19;20038;-62
2022/04/06 05:21:32;;;;;;;6.35;5.35;;;9.30;32.30;;;;;;7388866;19;20049;-62
2022/04/06 05:24:05;;;;;;;7.00;5.57;;;9.30;32.30;;;;;;7355880;19;20497;-62
2022/04/06 05:26:41;;;;;;;7.55;5.55;;;9.30;32.30;;;;;;7365632;19;20017;-62
2022/04/06 05:29:12;;;;;;;6.72;5.65;;;9.30;32.10;;;;;;7368134;19;20010;-62
2022/04/06 05:31:42;;;;;;;8.57;5.10;;;9.40;32.20;;;;;;7366994;19;20107;-62
2022/04/06 05:34:12;;;;;;;7.85;5.30;;;9.40;31.60;;;;;;7360029;19;20014;-61
2022/04/06 05:36:42;;;;;;;7.50;5.07;;;9.40;31.60;;;;;;7388328;19;20497;-62
2022/04/06 05:39:14;;;;;;;7.03;5.28;;;9.40;31.80;;;;;;7367587;19;20007;-62
2022/04/06 05:41:44;;;;;;;7.20;5.35;;;9.40;31.30;;;;;;7366471;19;20808;-62
2022/04/06 05:44:14;;;;;;;7.88;6.10;;;9.50;30.50;;;;;;7361204;19;20522;-62
2022/04/06 05:46:44;;;;;;;7.90;5.32;;;9.60;29.90;;;;;;7367294;19;20010;-62
2022/04/06 05:49:14;;;;;;;13.77;7.30;;;9.60;29.30;;;;;;7367663;19;20023;-62
2022/04/06 05:51:44;;;;;;;7.40;6.10;;;9.60;29.40;;;;;;7389263;19;20014;-62
2022/04/06 05:54:17;;;;;;;8.43;6.10;;;9.60;29.30;;;;;;7360831;19;20006;-62
2022/04/06 05:56:46;;;;;;;6.90;6.00;;;9.70;29.40;;;;;;7365356;19;20093;-62
2022/04/06 05:59:18;;;;;;;9.98;5.93;;;9.70;29.30;;;;;;7367015;19;20010;-62
2022/04/06 06:01:48;;;;;;;11.80;5.82;;;9.70;28.50;;;;;;7362805;19;20350;-60
2022/04/06 06:04:18;;;;;;;7.50;5.80;;;9.80;28.10;;;;;;7359893;19;20490;-61
2022/04/06 06:06:48;;;;;;;7.30;5.70;;;9.80;27.30;;;;;;7387641;19;20479;-62
2022/04/06 06:09:20;;;;;;;9.90;6.43;;;9.80;27.60;;;;;;7365936;19;20010;-62
2022/04/06 06:11:50;;;;;;;13.55;5.82;;;9.90;28.30;;;;;;7363493;19;20014;-62
2022/04/06 06:14:20;;;;;;;9.93;6.40;;;9.90;27.40;;;;;;7360293;19;20017;-61
2022/04/06 06:16:50;;;;;;;7.75;5.57;;;9.90;27.20;;;;;;7366009;19;20019;-62
2022/04/06 06:19:20;;;;;;;8.52;6.40;;;10.00;25.90;;;;;;7367565;19;20105;-61
2022/04/06 06:21:50;;;;;;;7.45;5.53;;;10.00;25.50;;;;;;7383958;19;20016;-62
2022/04/06 06:24:24;;;;;;;8.27;5.72;;;10.00;25.50;;;;;;7357845;19;20018;-62
2022/04/06 06:26:54;;;;;;;7.60;5.63;;;10.10;25.00;;;;;;7363848;19;20045;-61
2022/04/06 06:29:27;;;;;;;7.95;5.60;;;10.10;24.80;;;;;;7366038;19;20006;-62
2022/04/06 06:31:57;;;;;;;7.95;5.57;;;10.20;24.00;;;;;;7362908;19;20022;-62
2022/04/06 06:34:26;;;;;;;7.65;5.50;;;10.30;23.80;;;;;;7361428;19;20479;-63
2022/04/06 06:36:56;;;;;;;10.80;6.15;;;10.30;23.00;;;;;;7387206;19;20564;-61
2022/04/06 06:39:29;;;;;;;6.35;5.10;;;10.30;22.80;;;;;;7365665;19;20038;-63
2022/04/06 06:41:58;;;;;;;5.63;4.47;;;10.30;22.00;;;;;;7361659;19;20488;-62
2022/04/06 06:44:28;;;;;;;6.05;4.68;;;10.40;21.10;;;;;;7359599;19;20017;-62
2022/04/06 06:46:58;;;;;;;7.13;4.60;;;10.40;21.80;;;;;;7363199;19;20368;-61
2022/04/06 06:49:29;;;;;;;6.28;4.93;;;10.40;21.30;;;;;;7366505;19;20007;-61
2022/04/06 06:51:58;;;;;;;4.22;3.83;;;10.50;20.90;;;;;;7383603;19;20018;-61
2022/04/06 06:54:31;;;;;;;6.68;3.78;;;10.50;20.40;;;;;;7360097;19;20010;-62
2022/04/06 06:57:01;;;;;;;6.30;3.55;;;10.50;20.30;;;;;;7363043;19;20017;-61
2022/04/06 06:59:33;;;;;;;5.82;3.58;;;10.60;19.00;;;;;;7365081;19;20003;-63
2022/04/06 07:02:03;;;;;;;4.80;3.90;;;10.60;19.00;;;;;;7359975;19;20014;-61
2022/04/06 07:04:32;;;;;;;6.00;3.90;;;10.60;19.30;;;;;;7360446;19;20089;-61
2022/04/06 07:07:02;;;;;;;6.38;3.78;;;10.50;19.70;;;;;;7373424;19;20024;-62
2022/04/06 07:09:35;;;;;;;5.35;3.45;;;10.50;19.60;;;;;;7384306;19;20572;-61
2022/04/06 07:12:06;;;;;;;6.90;3.05;;;10.60;19.70;;;;;;7360325;19;21735;-62
2022/04/06 07:14:36;;;;;;;5.45;3.20;;;10.50;18.10;;;;;;7359853;19;20089;-62
2022/04/06 07:17:06;;;;;;;3.50;3.00;;;10.50;18.90;;;;;;7365598;19;20017;-62
2022/04/06 07:19:36;;;;;;;3.92;2.97;;;10.50;18.90;;;;;;7365599;19;20023;-62
2022/04/06 07:22:06;;;;;;;4.55;2.70;;;10.50;18.60;;;;;;7361865;19;20017;-62
2022/04/06 07:24:40;;;;;;;4.15;2.67;;;10.50;17.80;;;;;;7381213;19;20074;-62
2022/04/06 07:27:10;;;;;;;4.13;2.75;;;10.50;18.30;;;;;;7363569;19;20007;-62
2022/04/06 07:29:39;;;;;;;4.28;2.38;;;10.50;18.90;;;;;;7364805;19;20546;-62
2022/04/06 07:32:10;;;;;;;18.13;11.45;;;10.50;18.30;;;;;;7362245;19;20053;-62
2022/04/06 07:34:41;;;;;;;3.97;2.78;;;10.60;19.00;;;;;;7357787;19;20039;-62
2022/04/06 07:37:11;;;;;;;5.82;2.70;;;10.60;17.90;;;;;;7363040;19;20045;-61
2022/04/06 07:39:44;;;;;;;4.10;2.38;;;10.50;17.30;;;;;;7386274;19;20090;-61
2022/04/06 07:42:13;;;;;;;2.45;2.15;;;10.50;18.90;;;;;;7359829;19;20077;-62
2022/04/06 07:44:43;;;;;;;4.00;2.25;;;10.50;18.80;;;;;;7358416;19;20138;-61
2022/04/06 07:47:13;;;;;;;2.90;2.35;;;10.40;18.80;;;;;;7364569;19;20014;-63
2022/04/06 07:49:43;;;;;;;2.60;2.17;;;10.40;19.90;;;;;;7362680;19;20091;-63
2022/04/06 07:52:13;;;;;;;3.45;2.30;;;10.50;18.90;;;;;;7360255;19;20012;-62
2022/04/06 07:54:45;;;;;;;4.40;2.33;;;10.70;19.00;;;;;;7378702;19;20078;-62
2022/04/06 07:57:15;;;;;;;3.05;2.42;;;10.80;18.20;;;;;;7362403;19;20482;-62
2022/04/06 07:59:45;;;;;;;5.25;2.85;;;10.90;17.40;;;;;;7363620;19;20018;-60
2022/04/06 08:02:15;;;;;;;4.25;2.83;;;10.90;15.60;;;;;;7359783;19;19998;-62
2022/04/06 08:04:45;;;;;;;3.88;2.90;;;10.90;17.30;;;;;;7356973;19;20082;-62
2022/04/06 08:07:15;;;;;;;3.65;2.80;;;10.90;15.70;;;;;;7363402;19;20046;-61
2022/04/06 08:09:48;;;;;;;4.47;2.78;;;10.90;16.50;;;;;;7385576;19;20440;-62
2022/04/06 08:12:18;;;;;;;4.70;2.95;;;11.00;16.60;;;;;;7358509;19;20031;-61
2022/04/06 08:14:50;;;;;;;4.68;2.97;;;10.90;16.20;;;;;;7357869;19;20012;-62
2022/04/06 08:17:20;;;;;;;9.43;3.90;;;11.10;16.20;;;;;;7363696;19;20020;-62
2022/04/06 08:19:50;;;;;;;3.38;2.92;;;11.10;16.60;;;;;;7362889;19;20041;-62
2022/04/06 08:22:20;;;;;;;9.15;3.10;;;11.20;15.80;;;;;;7358702;19;20015;-63
2022/04/06 08:24:52;;;;;;;20.25;3.22;;;11.40;14.90;;;;;;7378114;19;20015;-62
2022/04/06 08:27:22;;;;;;;47.28;27.15;;;11.40;13.10;;;;;;7361966;19;20010;-61
2022/04/06 08:29:57;;;;;;;3.28;2.03;;;11.60;12.60;;;;;;7362343;19;20542;-61
2022/04/06 08:32:27;;;;;;;3.15;2.00;;;11.50;8.80;;;;;;7360597;19;20021;-61
2022/04/06 08:34:57;;;;;;;3.55;1.70;;;11.60;9.80;;;;;;7356794;19;20074;-61
2022/04/06 08:37:27;;;;;;;2.13;1.45;;;11.60;9.10;;;;;;7362155;19;20020;-61
2022/04/06 08:40:00;;;;;;;2.42;2.00;;;11.50;8.80;;;;;;7384485;19;20078;-61
2022/04/06 08:42:39;;;;;;;5.38;2.13;;;11.30;9.10;;;;;;7358979;19;20017;-61
2022/04/06 08:45:10;;;;;;;4.32;1.92;;;11.50;10.70;;;;;;7355616;19;20015;-61
2022/04/06 08:47:51;;;;;;;3.50;2.13;;;11.70;8.60;;;;;;7363176;19;20039;-61
2022/04/06 08:50:22;;;;;;;2.13;1.23;;;11.80;9.50;;;;;;7361295;19;20105;-61
2022/04/06 08:52:51;;;;;;;2.78;1.48;;;11.90;3.60;;;;;;7358453;19;20500;-62
2022/04/06 08:55:32;;;;;;;5.05;1.60;;;12.20;1.80;;;;;;7356087;19;20083;-62
2022/04/06 08:58:03;;;;;;;2.03;1.25;;;12.20;1.60;;;;;;7372279;19;20502;-61
2022/04/06 09:00:33;;;;;;;2.67;1.00;;;12.20;1.00;;;;;;7384061;19;20018;-61
2022/04/06 09:03:03;;;;;;;3.05;1.10;;;12.40;1.00;;;;;;7356258;19;20101;-62
2022/04/06 09:05:34;;;;;;;2.22;1.08;;;12.70;1.00;;;;;;7357310;19;20378;-62
2022/04/06 09:08:05;;;;;;;1.95;0.95;;;13.00;1.00;;;;;;7362383;19;20011;-61
2022/04/06 09:10:43;;;;;;;1.40;0.73;;;13.10;1.00;;;;;;7362156;19;20471;-61
2022/04/06 09:13:17;;;;;;;1.00;0.77;;;13.30;1.00;;;;;;7355629;19;20048;-61
2022/04/06 09:15:47;;;;;;;2.13;0.90;;;13.60;1.00;;;;;;7379949;19;20198;-61
2022/04/06 09:18:17;;;;;;;4.18;0.85;;;13.80;1.00;;;;;;7360674;19;20235;-61
2022/04/06 09:20:47;;;;;;;2.35;1.00;;;13.40;1.00;;;;;;7360947;19;20011;-62
2022/04/06 09:23:16;;;;;;;4.53;0.95;;;13.80;1.00;;;;;;7354334;19;20014;-61
2022/04/06 09:25:51;;;;;;;5.30;1.60;;;13.40;1.00;;;;;;7363444;19;20021;-62
2022/04/06 09:28:20;;;;;;;;;;;13.70;1.00;;;;;;7368340;19;20014;-61
2022/04/06 09:30:51;;;;;;;1.63;0.70;;;13.90;1.00;;;;;;7391259;19;19994;-62
2022/04/06 09:33:23;;;;;;;2.00;0.80;;;13.90;1.00;;;;;;7360556;19;20037;-62
2022/04/06 09:35:55;;;;;;;1.75;0.98;;;13.70;1.00;;;;;;7365321;19;20090;-62
2022/04/06 09:38:29;;;;;;;4.25;1.15;;;14.00;1.00;;;;;;7366779;19;20017;-62
2022/04/06 09:41:14;;;;;;;2.78;1.52;;;13.20;1.00;;;;;;7367875;19;20010;-62
2022/04/06 09:43:46;;;;;;;2.20;0.90;;;13.80;1.00;;;;;;7357680;19;20427;-61
2022/04/06 09:49:05;;;;;;;1.63;0.80;;;14.30;1.00;;;;;;7367913;19;20025;-63
2022/04/06 09:51:35;;;;;;;1.42;0.60;;;14.20;1.00;;;;;;7389873;19;20427;-61
2022/04/06 09:54:06;;;;;;;3.08;0.60;;;14.30;1.00;;;;;;7357185;19;20074;-61
2022/04/06 09:56:39;;;;;;;0.75;0.50;;;14.20;1.00;;;;;;7368227;19;20081;-61
2022/04/06 09:59:11;;;;;;;1.60;0.80;;;14.00;1.00;;;;;;7368989;19;20010;-61
2022/04/06 10:01:44;;;;;;;1.77;0.85;;;14.00;1.00;;;;;;7368269;19;20045;-62
2022/04/06 10:04:19;;;;;;;1.73;0.70;;;14.10;1.00;;;;;;7360047;19;20006;-62
2022/04/06 10:06:49;;;;;;;1.80;0.60;;;14.30;1.00;;;;;;7386275;19;20828;-62
2022/04/06 10:09:19;;;;;;;2.20;1.23;;;14.20;1.00;;;;;;7367238;19;20073;-62
2022/04/06 10:11:54;;;;;;;1.20;0.80;;;14.10;1.00;;;;;;7364934;19;20547;-62
2022/04/06 10:14:25;;;;;;;1.60;0.90;;;14.10;1.00;;;;;;7359504;19;20117;-62
2022/04/06 10:16:57;;;;;;;3.70;0.82;;;14.10;1.00;;;;;;7366515;19;20034;-62
2022/04/06 10:19:34;;;;;;;1.15;0.70;;;14.20;1.00;;;;;;7366548;19;20090;-62
2022/04/06 10:22:14;;;;;;;2.28;0.65;;;14.30;1.00;;;;;;7364156;19;20018;-63
2022/04/06 10:24:56;;;;;;;2.10;0.50;;;14.20;1.00;;;;;;7380096;19;20166;-62
2022/04/06 10:27:32;;;;;;;0.95;0.43;;;14.50;1.00;;;;;;7362559;19;20018;-62
2022/04/06 10:30:23;;;;;;;0.52;0.40;;;14.80;1.00;;;;;;7364735;19;20033;-62
2022/04/06 10:32:54;;;;;;;0.57;0.40;;;14.80;1.00;;;;;;7362595;19;20470;-61
2022/04/06 10:35:26;;;;;;;2.45;1.10;;;15.30;1.00;;;;;;7359321;19;20014;-61
2022/04/06 10:38:22;;;;;;;0.95;0.50;;;15.30;1.00;;;;;;7366605;19;20081;-62
2022/04/06 10:41:08;;;;;;;2.63;1.38;;;14.90;1.00;;;;;;7366349;19;20101;-62
2022/04/06 10:44:00;;;;;;;1.42;0.32;;;14.70;1.00;;;;;;7354216;19;21334;-62
2022/04/06 10:46:38;;;;;;;3.88;0.82;;;14.60;1.00;;;;;;7364352;19;20133;-62
2022/04/06 10:49:16;;;;;;;0.30;0.30;;;14.50;1.00;;;;;;7364073;19;20007;-62
2022/04/06 10:51:56;;;;;;;1.77;0.30;;;14.70;1.00;;;;;;7384112;19;20025;-62
2022/04/06 10:54:41;;;;;;;0.60;0.30;;;14.80;1.00;;;;;;7357712;19;20459;-61
2022/04/06 10:57:12;;;;;;;1.60;0.40;;;14.80;1.00;;;;;;7363887;19;20018;-61
2022/04/06 10:59:44;;;;;;;1.98;0.50;;;14.80;1.00;;;;;;7365213;19;20114;-61
2022/04/06 11:02:24;;;;;;;0.60;0.60;;;14.80;1.00;;;;;;7360817;19;20017;-62
2022/04/06 11:04:55;;;;;;;0.75;0.40;;;15.00;1.00;;;;;;7357468;19;20010;-61
2022/04/06 11:10:29;;;;;;;0.65;0.40;;;14.50;1.00;;;;;;7362564;19;20025;-62
2022/04/06 11:13:01;;;;;;;0.88;0.40;;;14.80;1.00;;;;;;7382139;19;20482;-63
2022/04/06 11:15:42;;;;;;;0.70;0.43;;;15.00;1.00;;;;;;7358350;19;20011;-63
2022/04/06 11:18:42;;;;;;;0.80;0.45;;;15.50;1.00;;;;;;7361828;19;20010;-62
2022/04/06 11:21:13;;;;;;;2.05;0.60;;;14.60;1.00;;;;;;7363201;19;20037;-61
2022/04/06 11:23:44;;;;;;;1.80;0.50;;;14.70;1.00;;;;;;7353415;19;20060;-61
2022/04/06 11:26:17;;;;;;;2.97;0.40;;;14.40;1.00;;;;;;7363178;19;20034;-62
2022/04/06 11:28:58;;;;;;;2.05;0.75;;;14.70;1.00;;;;;;7361881;19;20039;-62
2022/04/06 11:31:30;;;;;;;4.38;0.52;;;15.40;1.00;;;;;;7363399;19;20021;-61
2022/04/06 11:34:00;;;;;;;0.45;0.30;;;14.90;1.00;;;;;;7376344;19;20018;-61
2022/04/06 11:36:40;;;;;;;0.57;0.40;;;15.40;1.00;;;;;;7364063;19;20006;-61
2022/04/06 11:39:09;;;;;;;1.58;0.68;;;15.40;1.00;;;;;;7362071;19;20011;-62
2022/04/06 11:41:44;;;;;;;1.42;0.50;;;15.80;1.00;;;;;;7364849;19;20014;-63
2022/04/06 11:44:21;;;;;;;4.80;0.80;;;15.50;1.00;;;;;;7357956;19;20014;-62
2022/04/06 11:46:54;;;;;;;0.70;0.60;;;16.00;1.00;;;;;;7362580;19;20010;-60
2022/04/06 11:49:25;;;;;;;2.55;0.88;;;16.00;1.00;;;;;;7364576;19;20082;-62
2022/04/06 11:51:56;;;;;;;2.53;0.57;;;16.00;1.00;;;;;;7382337;19;20010;-61
2022/04/06 11:54:27;;;;;;;0.75;0.50;;;16.30;1.00;;;;;;7356457;19;20024;-60
2022/04/06 11:56:57;;;;;;;1.00;0.50;;;16.40;1.00;;;;;;7362602;19;20102;-61
2022/04/06 11:59:31;;;;;;;4.53;1.85;;;16.50;1.00;;;;;;7362160;19;20067;-61
2022/04/06 12:02:04;;;;;;;0.90;0.50;;;16.10;1.00;;;;;;7354819;19;20454;-62
2022/04/06 12:04:34;;;;;;;1.13;0.47;;;16.60;1.00;;;;;;7356608;19;20013;-62
2022/04/06 12:07:04;;;;;;;0.85;0.47;;;15.70;1.00;;;;;;7361182;19;20061;-63
2022/04/06 12:09:34;;;;;;;1.92;0.40;;;16.00;1.00;;;;;;7382654;19;20015;-61
2022/04/06 12:12:08;;;;;;;1.58;0.60;;;16.10;1.00;;;;;;7359090;19;20022;-62
2022/04/06 12:14:38;;;;;;;0.98;0.50;;;15.70;1.00;;;;;;7356103;19;20014;-62
2022/04/06 12:17:11;;;;;;;2.05;0.40;;;16.00;1.00;;;;;;7362255;19;20015;-63
2022/04/06 12:19:41;;;;;;;1.67;0.50;;;15.80;1.00;;;;;;7362929;19;20026;-63
2022/04/06 12:22:12;;;;;;;0.70;0.38;;;16.00;1.00;;;;;;7359683;19;20030;-63
2022/04/06 12:24:43;;;;;;;2.88;0.70;;;16.70;1.00;;;;;;7377886;19;20636;-62
2022/04/06 12:27:28;;;;;;;1.30;0.75;;;16.10;1.00;;;;;;7360789;19;20074;-61
2022/04/06 12:30:15;;;;;;;0.73;0.60;;;16.60;1.00;;;;;;7362358;19;20006;-62
2022/04/06 12:32:52;;;;;;;0.63;0.52;;;16.20;1.00;;;;;;7359321;19;20022;-63
2022/04/06 12:35:24;;;;;;;0.70;0.40;;;16.40;1.00;;;;;;7356552;19;20010;-63
2022/04/06 12:37:54;;;;;;;0.85;0.50;;;16.50;1.00;;;;;;7360868;19;20011;-62
2022/04/06 12:40:25;;;;;;;0.50;0.50;;;16.30;1.00;;;;;;7361918;19;20399;-62
2022/04/06 12:42:55;;;;;;;2.60;0.70;;;16.00;1.00;;;;;;7381037;19;20054;-63
2022/04/06 12:45:25;;;;;;;1.05;0.70;;;15.50;1.00;;;;;;7354989;19;20021;-63
2022/04/06 12:48:18;;;;;;;2.13;0.98;;;16.00;1.00;;;;;;7359943;19;20010;-63
2022/04/06 12:51:21;;;;;;;1.02;0.50;;;16.40;1.00;;;;;;7362200;19;20030;-63
2022/04/06 12:53:53;;;;;;;2.65;0.80;;;16.80;1.00;;;;;;7352046;19;20035;-63
2022/04/06 12:56:24;;;;;;;0.50;0.38;;;16.70;1.00;;;;;;7360928;19;20082;-63
2022/04/06 12:59:10;;;;;;;1.08;0.43;;;16.90;1.00;;;;;;7361868;19;20030;-62
2022/04/06 13:01:47;;;;;;;2.90;0.50;;;15.40;1.00;;;;;;7368877;19;20020;-62
2022/04/06 13:04:20;;;;;;;0.93;0.43;;;15.80;1.00;;;;;;7363695;19;20006;-63
2022/04/06 13:06:50;;;;;;;0.50;0.32;;;15.90;1.00;;;;;;7389065;19;20014;-63
2022/04/06 13:09:20;;;;;;;1.13;0.50;;;15.90;1.00;;;;;;7368481;19;20705;-63
2022/04/06 13:11:57;;;;;;;1.23;0.50;;;16.20;1.00;;;;;;7366284;19;20010;-64
2022/04/06 13:14:28;;;;;;;0.73;0.30;;;16.00;1.00;;;;;;7363036;19;20454;-63
2022/04/06 13:17:00;;;;;;;0.50;0.35;;;16.20;1.00;;;;;;7369016;19;20022;-64
2022/04/06 13:19:34;;;;;;;1.77;0.65;;;16.20;1.00;;;;;;7368575;19;20017;-62
2022/04/06 13:22:05;;;;;;;0.80;0.50;;;15.90;1.00;;;;;;7365960;19;20099;-64
2022/04/06 13:24:35;;;;;;;1.67;0.55;;;15.40;1.00;;;;;;7383220;19;20018;-64
2022/04/06 13:27:06;;;;;;;1.15;1.00;;;15.40;1.00;;;;;;7367733;19;20506;-63
2022/04/06 13:29:36;;;;;;;2.38;1.20;;;15.50;1.00;;;;;;7367003;19;20554;-63
2022/04/06 13:32:07;;;;;;;0.63;0.50;;;15.90;1.00;;;;;;7363758;19;20971;-63